createdAt,value
2018-04-19T00:03:41.269Z,6.53
2018-04-19T00:08:46.556Z,8.20
2018-04-19T00:13:49.114Z,8.70
2018-04-19T00:18:51.679Z,9.03
2018-04-19T00:23:54.248Z,8.00
2018-04-19T00:28:56.821Z,8.13
2018-04-19T00:34:00.860Z,9.43
2018-04-19T00:39:04.210Z,11.50
2018-04-19T00:44:06.764Z,13.87
2018-04-19T00:49:09.312Z,8.97
2018-04-19T00:54:12.577Z,9.37
2018-04-19T00:59:15.151Z,10.80
2018-04-19T01:04:17.993Z,15.50
2018-04-19T01:09:21.821Z,13.03
2018-04-19T01:14:25.703Z,14.20
2018-04-19T01:19:28.264Z,12.33
2018-04-19T01:24:30.845Z,16.27
2018-04-19T01:29:34.164Z,13.47
2018-04-19T01:34:37.668Z,16.80
2018-04-19T01:39:46.958Z,14.03
2018-04-19T01:44:49.654Z,13.90
2018-04-19T01:49:52.445Z,9.17
2018-04-19T01:54:55.791Z,15.37
2018-04-19T02:00:05.030Z,12.03
2018-04-19T02:05:07.598Z,13.53
2018-04-19T02:10:10.173Z,14.00
2018-04-19T02:15:12.816Z,13.40
2018-04-19T02:20:15.390Z,16.07
2018-04-19T02:25:18.312Z,16.90
2018-04-19T02:30:21.632Z,12.27
2018-04-19T02:35:24.221Z,12.60
2018-04-19T02:40:28.264Z,11.10
2018-04-19T02:45:31.609Z,11.00
2018-04-19T02:50:35.945Z,10.37
2018-04-19T02:55:38.523Z,11.70
2018-04-19T03:00:41.127Z,11.50
2018-04-19T03:05:44.201Z,12.33
2018-04-19T03:10:46.784Z,16.10
2018-04-19T03:15:50.611Z,16.93
2018-04-19T03:20:54.454Z,15.10
2018-04-19T03:25:57.019Z,11.83
2018-04-19T03:31:00.241Z,11.57
2018-04-19T03:36:02.818Z,10.17
2018-04-19T03:41:05.741Z,11.70
2018-04-19T03:46:08.300Z,12.13
2018-04-19T03:51:11.697Z,12.93
2018-04-19T03:56:15.682Z,10.60
2018-04-19T04:01:18.693Z,13.17
2018-04-19T04:06:23.011Z,11.53
2018-04-19T04:11:25.568Z,12.70
2018-04-19T04:16:40.828Z,17.53
2018-04-19T04:21:56.700Z,11.30
2018-04-19T04:26:59.601Z,13.17
2018-04-19T04:32:02.183Z,14.17
2018-04-19T04:37:05.507Z,12.50
2018-04-19T04:42:08.623Z,20.33
2018-04-19T04:47:11.475Z,17.00
2018-04-19T04:52:16.689Z,17.60
2018-04-19T04:57:19.712Z,13.63
2018-04-19T05:02:22.291Z,13.43
2018-04-19T05:07:26.061Z,16.33
2018-04-19T05:12:29.073Z,13.30
2018-04-19T05:17:32.260Z,11.50
2018-04-19T05:22:34.832Z,14.83
2018-04-19T05:27:37.401Z,19.23
2018-04-19T05:32:40.404Z,19.50
2018-04-19T05:37:42.984Z,17.83
2018-04-19T05:42:45.574Z,21.47
2018-04-19T05:47:48.160Z,16.63
2018-04-19T05:52:51.137Z,17.93
2018-04-19T05:57:54.457Z,18.40
2018-04-19T06:03:00.297Z,18.90
2018-04-19T06:08:10.017Z,22.40
2018-04-19T06:13:13.232Z,19.53
2018-04-19T06:18:15.877Z,20.07
2018-04-19T06:23:18.440Z,18.37
2018-04-19T06:28:21.093Z,26.37
2018-04-19T06:33:24.484Z,19.23
2018-04-19T06:38:27.730Z,18.27
2018-04-19T06:43:32.764Z,14.67
2018-04-19T06:48:35.715Z,19.93
2018-04-19T06:53:39.100Z,17.97
2018-04-19T06:58:42.465Z,15.37
2018-04-19T07:03:45.336Z,23.50
2018-04-19T07:08:48.596Z,16.83
2018-04-19T07:13:51.155Z,17.03
2018-04-19T07:18:53.731Z,16.83
2018-04-19T07:23:57.080Z,16.43
2018-04-19T07:28:59.746Z,13.67
2018-04-19T07:34:03.077Z,15.60
2018-04-19T07:39:06.453Z,13.60
2018-04-19T07:44:09.283Z,19.47
2018-04-19T07:49:12.629Z,16.60
2018-04-19T07:54:15.883Z,14.77
2018-04-19T07:59:18.912Z,29.73
2018-04-19T08:04:21.482Z,16.27
2018-04-19T08:09:24.073Z,16.13
2018-04-19T08:14:26.637Z,13.90
2018-04-19T08:19:30.232Z,15.67
2018-04-19T08:24:33.619Z,21.73
2018-04-19T08:29:38.609Z,21.33
2018-04-19T08:34:42.676Z,11.87
2018-04-19T08:39:51.442Z,14.50
2018-04-19T08:44:54.112Z,13.33
2018-04-19T08:49:56.687Z,14.27
2018-04-19T08:55:00.613Z,15.07
2018-04-19T09:00:03.944Z,13.47
2018-04-19T09:05:10.124Z,14.40
2018-04-19T09:10:13.309Z,12.80
2018-04-19T09:15:16.431Z,13.40
2018-04-19T09:20:19.782Z,11.73
2018-04-19T09:25:22.352Z,14.47
2018-04-19T09:30:26.235Z,16.10
2018-04-19T09:35:28.876Z,11.97
2018-04-19T09:40:32.194Z,13.90
2018-04-19T09:45:35.534Z,12.03
2018-04-19T09:50:38.612Z,17.87
2018-04-19T09:55:42.259Z,11.03
2018-04-19T10:00:45.630Z,13.47
2018-04-19T10:05:48.208Z,13.77
2018-04-19T10:10:51.057Z,14.10
2018-04-19T10:15:54.423Z,14.90
2018-04-19T10:20:57.556Z,10.20
2018-04-19T10:26:00.757Z,8.30
2018-04-19T10:31:03.320Z,8.93
2018-04-19T10:36:06.449Z,9.73
2018-04-19T10:41:09.022Z,14.63
2018-04-19T10:46:11.595Z,12.70
2018-04-19T10:51:15.755Z,10.43
2018-04-19T10:56:18.840Z,12.37
2018-04-19T11:01:22.175Z,12.50
2018-04-19T11:06:24.755Z,12.07
2018-04-19T11:11:28.910Z,12.50
2018-04-19T11:16:31.695Z,16.20
2018-04-19T11:21:49.664Z,9.10
2018-04-19T11:26:52.979Z,11.10
2018-04-19T11:31:56.652Z,15.70
2018-04-19T11:36:59.212Z,10.07
2018-04-19T11:42:02.229Z,15.30
2018-04-19T11:47:04.792Z,11.00
2018-04-19T11:52:08.125Z,14.33
2018-04-19T11:57:10.685Z,11.07
2018-04-19T12:02:14.004Z,12.83
2018-04-19T12:07:16.883Z,10.30
2018-04-19T12:12:19.472Z,11.50
2018-04-19T12:17:22.191Z,11.43
2018-04-19T12:22:25.292Z,17.83
2018-04-19T12:27:27.875Z,12.60
2018-04-19T12:32:30.777Z,13.30
2018-04-19T12:37:35.906Z,9.60
2018-04-19T12:42:38.446Z,10.30
2018-04-19T12:47:41.057Z,10.90
2018-04-19T12:52:44.089Z,10.23
2018-04-19T12:57:46.666Z,11.00
2018-04-19T13:07:59.023Z,13.83
2018-04-19T13:13:01.667Z,8.70
2018-04-19T13:18:05.215Z,13.60
2018-04-19T13:23:07.786Z,7.80
2018-04-19T13:28:11.121Z,11.07
2018-04-19T13:33:14.015Z,7.80
2018-04-19T13:38:16.630Z,9.07
2018-04-19T13:43:19.788Z,7.93
2018-04-19T13:48:22.352Z,9.40
2018-04-19T13:53:24.933Z,4.53
2018-04-19T13:58:28.122Z,11.17
2018-04-19T14:03:31.452Z,4.90
2018-04-19T14:08:34.075Z,7.70
2018-04-19T14:13:36.654Z,6.53
2018-04-19T14:18:39.249Z,4.23
2018-04-19T14:23:42.311Z,4.80
2018-04-19T14:28:45.481Z,8.27
2018-04-19T14:33:48.024Z,5.53
2018-04-19T14:38:51.040Z,5.43
2018-04-19T14:43:53.865Z,9.40
2018-04-19T14:48:57.192Z,4.63
2018-04-19T14:53:59.773Z,2.77
2018-04-19T14:59:03.601Z,8.77
2018-04-19T15:04:07.201Z,4.93
2018-04-19T15:09:09.771Z,3.77
2018-04-19T15:14:12.931Z,3.03
2018-04-19T15:19:16.265Z,9.83
2018-04-19T15:24:19.217Z,3.43
2018-04-19T15:29:22.328Z,5.60
2018-04-19T15:34:24.889Z,12.33
2018-04-19T15:39:27.474Z,4.90
2018-04-19T15:44:31.140Z,11.80
2018-04-19T15:49:34.503Z,9.67
2018-04-19T15:54:37.839Z,8.97
2018-04-19T15:59:40.423Z,8.60
2018-04-19T16:04:43.777Z,8.90
2018-04-19T16:09:46.362Z,8.23
2018-04-19T16:14:48.948Z,9.27
2018-04-19T16:19:51.520Z,9.23
2018-04-19T16:24:54.873Z,6.60
2018-04-19T16:29:57.445Z,6.03
2018-04-19T16:35:00.781Z,8.53
2018-04-19T16:40:03.343Z,5.27
2018-04-19T16:45:09.304Z,8.57
2018-04-19T16:50:12.273Z,5.53
2018-04-19T16:55:16.185Z,4.17
2018-04-19T17:00:18.747Z,5.20
2018-04-19T17:05:21.328Z,6.47
2018-04-19T17:10:23.900Z,9.40
2018-04-19T17:15:26.480Z,5.33
2018-04-19T17:20:29.045Z,4.77
2018-04-19T17:25:32.405Z,6.93
2018-04-19T17:30:34.980Z,3.33
2018-04-19T17:35:37.553Z,6.80
2018-04-19T17:40:40.130Z,6.87
2018-04-19T17:45:42.684Z,7.13
2018-04-19T17:50:45.253Z,9.73
2018-04-19T17:55:48.589Z,9.10
2018-04-19T18:00:51.172Z,21.50
2018-04-19T18:05:54.519Z,17.27
2018-04-19T18:10:57.072Z,24.93
2018-04-19T18:15:59.678Z,36.93
2018-04-19T18:21:03.003Z,19.67
2018-04-19T18:26:06.332Z,16.70
2018-04-19T18:31:08.908Z,12.30
2018-04-19T18:36:12.728Z,14.63
2018-04-19T18:41:15.299Z,12.00
2018-04-19T18:46:18.078Z,7.87
2018-04-19T18:51:21.562Z,5.93
2018-04-19T18:56:25.512Z,7.17
2018-04-19T19:01:28.071Z,6.53
2018-04-19T19:06:30.650Z,6.67
2018-04-19T19:11:33.623Z,5.70
2018-04-19T19:16:36.191Z,7.83
2018-04-19T19:21:40.352Z,9.23
2018-04-19T19:26:42.919Z,5.30
2018-04-19T19:31:46.227Z,5.17
2018-04-19T19:36:48.799Z,8.83
2018-04-19T19:41:51.568Z,8.03
2018-04-19T19:46:54.152Z,6.17
2018-04-19T19:51:56.704Z,9.60
2018-04-19T19:56:59.883Z,5.30
2018-04-19T20:02:03.559Z,4.50
2018-04-19T20:07:06.119Z,7.60
2018-04-19T20:12:09.196Z,12.23
2018-04-19T20:17:12.262Z,11.30
2018-04-19T20:22:14.840Z,14.23
2018-04-19T20:27:17.395Z,11.13
2018-04-19T20:32:21.102Z,8.23
2018-04-19T20:37:25.093Z,12.03
2018-04-19T20:42:27.998Z,15.73
2018-04-19T20:47:31.279Z,7.50
2018-04-19T20:52:34.210Z,9.50
2018-04-19T20:57:36.774Z,8.97
2018-04-19T21:02:39.384Z,6.33
2018-04-19T21:07:41.999Z,7.27
2018-04-19T21:12:45.821Z,8.27
2018-04-19T21:17:49.053Z,6.90
2018-04-19T21:22:52.896Z,9.93
2018-04-19T21:27:55.473Z,13.67
2018-04-19T21:32:58.056Z,15.80
2018-04-19T21:38:00.609Z,7.03
2018-04-19T21:43:05.272Z,7.47
2018-04-19T21:48:08.876Z,11.63
2018-04-19T21:53:12.213Z,10.63
2018-04-19T21:58:15.380Z,17.43
2018-04-19T22:03:17.952Z,11.70
2018-04-19T22:08:20.538Z,8.33
2018-04-19T22:13:23.100Z,10.20
2018-04-19T22:18:26.876Z,9.83
2018-04-19T22:23:30.065Z,7.97
2018-04-19T22:28:36.007Z,11.20
2018-04-19T22:33:38.571Z,10.03
2018-04-19T22:38:41.728Z,10.03
2018-04-19T22:43:45.364Z,9.10
2018-04-19T22:48:48.393Z,8.10
2018-04-19T22:53:51.882Z,11.90
2018-04-19T22:58:55.206Z,8.20
2018-04-19T23:03:57.831Z,7.97
2018-04-19T23:09:00.837Z,8.40
2018-04-19T23:14:03.412Z,9.07
2018-04-19T23:19:07.325Z,15.33
2018-04-19T23:24:10.664Z,12.90
2018-04-19T23:29:13.237Z,9.13
2018-04-19T23:39:25.823Z,7.10
2018-04-19T23:44:29.732Z,8.80
2018-04-19T23:49:32.481Z,6.90
2018-04-19T23:54:35.055Z,10.93
2018-04-19T23:59:37.869Z,7.70
